sensor_id;sensor_type;location;lat;lon;timestamp;P1;durP1;ratioP1;P2;durP2;ratioP2
85081;SDS011;75424;50.762;7.178;2024-02-28T00:01:26;45.72;;;22.30;;
85081;SDS011;75424;50.762;7.178;2024-02-28T00:03:51;46.47;;;22.55;;
85081;SDS011;75424;50.762;7.178;2024-02-28T00:06:17;46.65;;;24.08;;
85081;SDS011;75424;50.762;7.178;2024-02-28T00:08:42;50.20;;;24.50;;
85081;SDS011;75424;50.762;7.178;2024-02-28T00:11:08;51.28;;;24.70;;
85081;SDS011;75424;50.762;7.178;2024-02-28T00:13:33;48.97;;;22.58;;
85081;SDS011;75424;50.762;7.178;2024-02-28T00:15:58;56.80;;;24.50;;
85081;SDS011;75424;50.762;7.178;2024-02-28T00:18:24;53.55;;;23.90;;
85081;SDS011;75424;50.762;7.178;2024-02-28T00:20:49;51.10;;;23.70;;
85081;SDS011;75424;50.762;7.178;2024-02-28T00:23:14;49.33;;;22.05;;
85081;SDS011;75424;50.762;7.178;2024-02-28T00:25:40;56.42;;;23.85;;
85081;SDS011;75424;50.762;7.178;2024-02-28T00:28:05;47.60;;;22.20;;
85081;SDS011;75424;50.762;7.178;2024-02-28T00:30:30;46.90;;;21.33;;
85081;SDS011;75424;50.762;7.178;2024-02-28T00:32:57;48.72;;;23.38;;
85081;SDS011;75424;50.762;7.178;2024-02-28T00:35:23;51.00;;;23.67;;
85081;SDS011;75424;50.762;7.178;2024-02-28T00:37:48;51.47;;;24.30;;
85081;SDS011;75424;50.762;7.178;2024-02-28T00:40:13;52.38;;;24.67;;
85081;SDS011;75424;50.762;7.178;2024-02-28T00:42:39;47.25;;;23.65;;
85081;SDS011;75424;50.762;7.178;2024-02-28T00:45:04;51.00;;;22.95;;
85081;SDS011;75424;50.762;7.178;2024-02-28T00:47:30;45.70;;;22.38;;
85081;SDS011;75424;50.762;7.178;2024-02-28T00:49:55;52.03;;;25.13;;
85081;SDS011;75424;50.762;7.178;2024-02-28T00:52:21;55.42;;;26.02;;
85081;SDS011;75424;50.762;7.178;2024-02-28T00:54:46;49.55;;;24.67;;
85081;SDS011;75424;50.762;7.178;2024-02-28T00:57:11;52.90;;;23.93;;
85081;SDS011;75424;50.762;7.178;2024-02-28T00:59:37;57.10;;;24.48;;
85081;SDS011;75424;50.762;7.178;2024-02-28T01:02:02;47.38;;;21.83;;
85081;SDS011;75424;50.762;7.178;2024-02-28T01:04:28;49.35;;;23.30;;
85081;SDS011;75424;50.762;7.178;2024-02-28T01:06:54;55.35;;;23.50;;
85081;SDS011;75424;50.762;7.178;2024-02-28T01:09:19;59.13;;;24.13;;
85081;SDS011;75424;50.762;7.178;2024-02-28T01:11:45;54.33;;;26.30;;
85081;SDS011;75424;50.762;7.178;2024-02-28T01:14:10;52.75;;;23.23;;
85081;SDS011;75424;50.762;7.178;2024-02-28T01:16:36;46.08;;;22.42;;
85081;SDS011;75424;50.762;7.178;2024-02-28T01:19:01;47.92;;;22.63;;
85081;SDS011;75424;50.762;7.178;2024-02-28T01:21:28;52.42;;;22.65;;
85081;SDS011;75424;50.762;7.178;2024-02-28T01:23:53;56.00;;;23.52;;
85081;SDS011;75424;50.762;7.178;2024-02-28T01:26:18;52.03;;;24.40;;
85081;SDS011;75424;50.762;7.178;2024-02-28T01:28:46;55.20;;;24.75;;
85081;SDS011;75424;50.762;7.178;2024-02-28T01:31:11;53.17;;;24.42;;
85081;SDS011;75424;50.762;7.178;2024-02-28T01:33:37;53.67;;;24.03;;
85081;SDS011;75424;50.762;7.178;2024-02-28T01:36:02;53.43;;;23.47;;
85081;SDS011;75424;50.762;7.178;2024-02-28T01:38:29;54.42;;;23.38;;
85081;SDS011;75424;50.762;7.178;2024-02-28T01:40:54;49.43;;;23.67;;
85081;SDS011;75424;50.762;7.178;2024-02-28T01:43:20;55.70;;;22.67;;
85081;SDS011;75424;50.762;7.178;2024-02-28T01:45:45;54.05;;;24.73;;
85081;SDS011;75424;50.762;7.178;2024-02-28T01:48:10;50.33;;;22.08;;
85081;SDS011;75424;50.762;7.178;2024-02-28T01:50:37;56.05;;;26.27;;
85081;SDS011;75424;50.762;7.178;2024-02-28T01:53:02;51.67;;;24.48;;
85081;SDS011;75424;50.762;7.178;2024-02-28T01:55:28;49.90;;;22.98;;
85081;SDS011;75424;50.762;7.178;2024-02-28T01:57:54;53.42;;;23.80;;
85081;SDS011;75424;50.762;7.178;2024-02-28T02:00:20;50.45;;;24.02;;
85081;SDS011;75424;50.762;7.178;2024-02-28T02:02:47;58.83;;;26.45;;
85081;SDS011;75424;50.762;7.178;2024-02-28T02:05:13;56.60;;;24.80;;
85081;SDS011;75424;50.762;7.178;2024-02-28T02:07:41;50.28;;;23.20;;
85081;SDS011;75424;50.762;7.178;2024-02-28T02:10:06;52.20;;;24.30;;
85081;SDS011;75424;50.762;7.178;2024-02-28T02:12:34;63.08;;;25.73;;
85081;SDS011;75424;50.762;7.178;2024-02-28T02:14:59;57.67;;;24.60;;
85081;SDS011;75424;50.762;7.178;2024-02-28T02:17:24;56.20;;;26.17;;
85081;SDS011;75424;50.762;7.178;2024-02-28T02:19:50;51.33;;;24.10;;
85081;SDS011;75424;50.762;7.178;2024-02-28T02:22:15;55.80;;;25.33;;
85081;SDS011;75424;50.762;7.178;2024-02-28T02:24:41;62.05;;;27.75;;
85081;SDS011;75424;50.762;7.178;2024-02-28T02:27:07;66.50;;;27.40;;
85081;SDS011;75424;50.762;7.178;2024-02-28T02:29:32;58.70;;;27.55;;
85081;SDS011;75424;50.762;7.178;2024-02-28T02:31:58;63.00;;;27.60;;
85081;SDS011;75424;50.762;7.178;2024-02-28T02:34:23;61.83;;;26.13;;
85081;SDS011;75424;50.762;7.178;2024-02-28T02:36:48;64.45;;;27.35;;
85081;SDS011;75424;50.762;7.178;2024-02-28T02:39:14;55.47;;;25.00;;
85081;SDS011;75424;50.762;7.178;2024-02-28T02:41:39;59.40;;;25.77;;
85081;SDS011;75424;50.762;7.178;2024-02-28T02:44:05;61.70;;;26.58;;
85081;SDS011;75424;50.762;7.178;2024-02-28T02:46:32;61.45;;;25.30;;
85081;SDS011;75424;50.762;7.178;2024-02-28T02:48:57;63.27;;;26.07;;
85081;SDS011;75424;50.762;7.178;2024-02-28T02:51:22;64.33;;;27.60;;
85081;SDS011;75424;50.762;7.178;2024-02-28T02:53:48;66.72;;;26.02;;
85081;SDS011;75424;50.762;7.178;2024-02-28T02:56:13;64.28;;;27.00;;
85081;SDS011;75424;50.762;7.178;2024-02-28T02:58:38;67.00;;;29.80;;
85081;SDS011;75424;50.762;7.178;2024-02-28T03:01:04;65.55;;;25.98;;
85081;SDS011;75424;50.762;7.178;2024-02-28T03:03:29;67.80;;;27.17;;
85081;SDS011;75424;50.762;7.178;2024-02-28T03:05:54;62.57;;;25.53;;
85081;SDS011;75424;50.762;7.178;2024-02-28T03:08:20;57.88;;;26.83;;
85081;SDS011;75424;50.762;7.178;2024-02-28T03:10:45;63.47;;;27.88;;
85081;SDS011;75424;50.762;7.178;2024-02-28T03:13:10;57.53;;;23.92;;
85081;SDS011;75424;50.762;7.178;2024-02-28T03:15:36;55.88;;;27.40;;
85081;SDS011;75424;50.762;7.178;2024-02-28T03:18:01;60.30;;;25.30;;
85081;SDS011;75424;50.762;7.178;2024-02-28T03:20:27;67.78;;;29.75;;
85081;SDS011;75424;50.762;7.178;2024-02-28T03:22:52;58.47;;;25.23;;
85081;SDS011;75424;50.762;7.178;2024-02-28T03:25:17;55.10;;;25.53;;
85081;SDS011;75424;50.762;7.178;2024-02-28T03:27:42;63.40;;;26.93;;
85081;SDS011;75424;50.762;7.178;2024-02-28T03:30:08;71.07;;;27.10;;
85081;SDS011;75424;50.762;7.178;2024-02-28T03:32:33;62.33;;;26.75;;
85081;SDS011;75424;50.762;7.178;2024-02-28T03:34:59;59.60;;;28.48;;
85081;SDS011;75424;50.762;7.178;2024-02-28T03:37:24;59.50;;;24.55;;
85081;SDS011;75424;50.762;7.178;2024-02-28T03:39:50;58.40;;;26.13;;
85081;SDS011;75424;50.762;7.178;2024-02-28T03:42:15;65.37;;;27.77;;
85081;SDS011;75424;50.762;7.178;2024-02-28T03:44:41;63.38;;;27.33;;
85081;SDS011;75424;50.762;7.178;2024-02-28T03:47:06;58.63;;;27.40;;
85081;SDS011;75424;50.762;7.178;2024-02-28T03:49:31;59.30;;;27.03;;
85081;SDS011;75424;50.762;7.178;2024-02-28T03:51:56;64.13;;;26.90;;
85081;SDS011;75424;50.762;7.178;2024-02-28T03:54:22;59.72;;;26.58;;
85081;SDS011;75424;50.762;7.178;2024-02-28T03:56:47;65.18;;;27.25;;
85081;SDS011;75424;50.762;7.178;2024-02-28T03:59:12;65.53;;;27.65;;
85081;SDS011;75424;50.762;7.178;2024-02-28T04:01:38;60.53;;;25.85;;
85081;SDS011;75424;50.762;7.178;2024-02-28T04:04:03;63.20;;;27.08;;
85081;SDS011;75424;50.762;7.178;2024-02-28T04:06:29;62.45;;;26.25;;
85081;SDS011;75424;50.762;7.178;2024-02-28T04:08:54;54.83;;;25.95;;
85081;SDS011;75424;50.762;7.178;2024-02-28T04:11:20;61.63;;;27.77;;
85081;SDS011;75424;50.762;7.178;2024-02-28T04:13:45;64.25;;;28.10;;
85081;SDS011;75424;50.762;7.178;2024-02-28T04:16:10;64.13;;;27.02;;
85081;SDS011;75424;50.762;7.178;2024-02-28T04:18:36;59.35;;;26.17;;
85081;SDS011;75424;50.762;7.178;2024-02-28T04:21:01;61.05;;;29.17;;
85081;SDS011;75424;50.762;7.178;2024-02-28T04:23:27;60.55;;;25.13;;
85081;SDS011;75424;50.762;7.178;2024-02-28T04:25:52;55.13;;;24.77;;
85081;SDS011;75424;50.762;7.178;2024-02-28T04:28:18;58.23;;;25.77;;
85081;SDS011;75424;50.762;7.178;2024-02-28T04:30:43;57.30;;;26.00;;
85081;SDS011;75424;50.762;7.178;2024-02-28T04:33:08;56.45;;;25.10;;
85081;SDS011;75424;50.762;7.178;2024-02-28T04:35:34;55.67;;;27.13;;
85081;SDS011;75424;50.762;7.178;2024-02-28T04:37:59;59.40;;;27.58;;
85081;SDS011;75424;50.762;7.178;2024-02-28T04:40:24;57.87;;;25.23;;
85081;SDS011;75424;50.762;7.178;2024-02-28T04:42:49;57.22;;;24.95;;
85081;SDS011;75424;50.762;7.178;2024-02-28T04:45:15;58.20;;;23.50;;
85081;SDS011;75424;50.762;7.178;2024-02-28T04:47:40;59.78;;;25.98;;
85081;SDS011;75424;50.762;7.178;2024-02-28T04:50:06;60.63;;;26.47;;
85081;SDS011;75424;50.762;7.178;2024-02-28T04:52:31;62.00;;;27.23;;
85081;SDS011;75424;50.762;7.178;2024-02-28T04:54:57;60.03;;;25.45;;
85081;SDS011;75424;50.762;7.178;2024-02-28T04:57:22;54.28;;;25.38;;
85081;SDS011;75424;50.762;7.178;2024-02-28T04:59:48;54.80;;;24.67;;
85081;SDS011;75424;50.762;7.178;2024-02-28T05:02:14;54.38;;;23.30;;
85081;SDS011;75424;50.762;7.178;2024-02-28T05:04:39;51.78;;;23.05;;
85081;SDS011;75424;50.762;7.178;2024-02-28T05:07:04;60.10;;;26.93;;
85081;SDS011;75424;50.762;7.178;2024-02-28T05:09:32;58.55;;;26.30;;
85081;SDS011;75424;50.762;7.178;2024-02-28T05:11:58;54.47;;;23.00;;
85081;SDS011;75424;50.762;7.178;2024-02-28T05:14:23;58.53;;;26.83;;
85081;SDS011;75424;50.762;7.178;2024-02-28T05:16:49;55.95;;;24.88;;
85081;SDS011;75424;50.762;7.178;2024-02-28T05:19:14;55.03;;;23.58;;
85081;SDS011;75424;50.762;7.178;2024-02-28T05:21:42;51.42;;;22.73;;
85081;SDS011;75424;50.762;7.178;2024-02-28T05:24:08;53.70;;;22.35;;
85081;SDS011;75424;50.762;7.178;2024-02-28T05:26:34;52.35;;;23.73;;
85081;SDS011;75424;50.762;7.178;2024-02-28T05:29:00;55.15;;;22.65;;
85081;SDS011;75424;50.762;7.178;2024-02-28T05:31:26;52.58;;;23.25;;
85081;SDS011;75424;50.762;7.178;2024-02-28T05:33:52;52.15;;;23.27;;
85081;SDS011;75424;50.762;7.178;2024-02-28T05:36:19;50.88;;;23.00;;
85081;SDS011;75424;50.762;7.178;2024-02-28T05:38:48;50.17;;;22.15;;
85081;SDS011;75424;50.762;7.178;2024-02-28T05:41:13;50.40;;;23.25;;
85081;SDS011;75424;50.762;7.178;2024-02-28T05:43:40;49.22;;;20.98;;
85081;SDS011;75424;50.762;7.178;2024-02-28T05:46:06;53.53;;;21.83;;
85081;SDS011;75424;50.762;7.178;2024-02-28T05:48:31;48.20;;;22.58;;
85081;SDS011;75424;50.762;7.178;2024-02-28T05:50:57;49.67;;;22.15;;
85081;SDS011;75424;50.762;7.178;2024-02-28T05:53:22;49.83;;;23.27;;
85081;SDS011;75424;50.762;7.178;2024-02-28T05:55:51;43.80;;;22.77;;
85081;SDS011;75424;50.762;7.178;2024-02-28T05:58:18;55.30;;;23.77;;
85081;SDS011;75424;50.762;7.178;2024-02-28T06:00:44;52.92;;;23.15;;
85081;SDS011;75424;50.762;7.178;2024-02-28T06:03:09;43.43;;;20.53;;
85081;SDS011;75424;50.762;7.178;2024-02-28T06:05:34;51.85;;;23.85;;
85081;SDS011;75424;50.762;7.178;2024-02-28T06:08:00;49.92;;;23.10;;
85081;SDS011;75424;50.762;7.178;2024-02-28T06:10:25;50.50;;;23.33;;
85081;SDS011;75424;50.762;7.178;2024-02-28T06:12:51;48.33;;;22.75;;
85081;SDS011;75424;50.762;7.178;2024-02-28T06:15:16;50.63;;;21.38;;
85081;SDS011;75424;50.762;7.178;2024-02-28T06:17:42;50.47;;;20.93;;
85081;SDS011;75424;50.762;7.178;2024-02-28T06:20:07;49.97;;;22.77;;
85081;SDS011;75424;50.762;7.178;2024-02-28T06:22:32;52.60;;;22.98;;
85081;SDS011;75424;50.762;7.178;2024-02-28T06:24:58;49.73;;;23.20;;
85081;SDS011;75424;50.762;7.178;2024-02-28T06:27:23;49.13;;;21.75;;
85081;SDS011;75424;50.762;7.178;2024-02-28T06:29:48;46.45;;;21.38;;
85081;SDS011;75424;50.762;7.178;2024-02-28T06:32:14;45.35;;;21.10;;
85081;SDS011;75424;50.762;7.178;2024-02-28T06:34:39;53.35;;;22.27;;
85081;SDS011;75424;50.762;7.178;2024-02-28T06:37:05;51.33;;;21.65;;
85081;SDS011;75424;50.762;7.178;2024-02-28T06:39:30;46.83;;;23.35;;
85081;SDS011;75424;50.762;7.178;2024-02-28T06:41:55;51.33;;;25.58;;
85081;SDS011;75424;50.762;7.178;2024-02-28T06:44:21;56.20;;;23.80;;
85081;SDS011;75424;50.762;7.178;2024-02-28T06:46:46;47.83;;;22.50;;
85081;SDS011;75424;50.762;7.178;2024-02-28T06:49:11;53.80;;;23.33;;
85081;SDS011;75424;50.762;7.178;2024-02-28T06:51:37;49.72;;;22.23;;
85081;SDS011;75424;50.762;7.178;2024-02-28T06:54:02;49.75;;;21.45;;
85081;SDS011;75424;50.762;7.178;2024-02-28T06:56:28;48.45;;;23.02;;
85081;SDS011;75424;50.762;7.178;2024-02-28T06:58:55;46.40;;;20.48;;
85081;SDS011;75424;50.762;7.178;2024-02-28T07:01:20;47.85;;;22.52;;
85081;SDS011;75424;50.762;7.178;2024-02-28T07:03:45;51.28;;;24.50;;
85081;SDS011;75424;50.762;7.178;2024-02-28T07:06:11;54.67;;;24.00;;
85081;SDS011;75424;50.762;7.178;2024-02-28T07:08:36;55.05;;;23.63;;
85081;SDS011;75424;50.762;7.178;2024-02-28T07:11:02;51.80;;;22.65;;
85081;SDS011;75424;50.762;7.178;2024-02-28T07:13:27;49.72;;;22.77;;
85081;SDS011;75424;50.762;7.178;2024-02-28T07:15:53;50.63;;;22.25;;
85081;SDS011;75424;50.762;7.178;2024-02-28T07:18:19;49.38;;;22.98;;
85081;SDS011;75424;50.762;7.178;2024-02-28T07:20:45;55.10;;;23.27;;
85081;SDS011;75424;50.762;7.178;2024-02-28T07:23:11;54.00;;;23.00;;
85081;SDS011;75424;50.762;7.178;2024-02-28T07:25:36;45.00;;;20.95;;
85081;SDS011;75424;50.762;7.178;2024-02-28T07:28:02;54.15;;;24.92;;
85081;SDS011;75424;50.762;7.178;2024-02-28T07:30:27;46.97;;;20.70;;
85081;SDS011;75424;50.762;7.178;2024-02-28T07:32:53;48.90;;;23.13;;
85081;SDS011;75424;50.762;7.178;2024-02-28T07:35:19;50.60;;;21.77;;
85081;SDS011;75424;50.762;7.178;2024-02-28T07:37:45;49.80;;;20.92;;
85081;SDS011;75424;50.762;7.178;2024-02-28T07:40:11;48.78;;;23.15;;
85081;SDS011;75424;50.762;7.178;2024-02-28T07:42:36;48.00;;;21.55;;
85081;SDS011;75424;50.762;7.178;2024-02-28T07:45:02;46.00;;;21.37;;
85081;SDS011;75424;50.762;7.178;2024-02-28T07:47:27;46.03;;;21.17;;
85081;SDS011;75424;50.762;7.178;2024-02-28T07:49:53;43.95;;;21.25;;
85081;SDS011;75424;50.762;7.178;2024-02-28T07:52:19;46.05;;;20.63;;
85081;SDS011;75424;50.762;7.178;2024-02-28T07:54:44;44.25;;;18.90;;
85081;SDS011;75424;50.762;7.178;2024-02-28T07:57:10;46.08;;;21.55;;
85081;SDS011;75424;50.762;7.178;2024-02-28T07:59:39;43.35;;;21.75;;
85081;SDS011;75424;50.762;7.178;2024-02-28T08:02:05;46.72;;;22.02;;
85081;SDS011;75424;50.762;7.178;2024-02-28T08:04:31;47.63;;;21.75;;
85081;SDS011;75424;50.762;7.178;2024-02-28T08:06:56;43.70;;;20.52;;
85081;SDS011;75424;50.762;7.178;2024-02-28T08:09:22;46.10;;;21.55;;
85081;SDS011;75424;50.762;7.178;2024-02-28T08:11:47;40.05;;;19.73;;
85081;SDS011;75424;50.762;7.178;2024-02-28T08:14:13;46.28;;;20.58;;
85081;SDS011;75424;50.762;7.178;2024-02-28T08:16:38;44.65;;;20.98;;
85081;SDS011;75424;50.762;7.178;2024-02-28T08:19:03;50.20;;;21.88;;
85081;SDS011;75424;50.762;7.178;2024-02-28T08:21:29;43.70;;;20.92;;
85081;SDS011;75424;50.762;7.178;2024-02-28T08:23:54;42.55;;;20.88;;
85081;SDS011;75424;50.762;7.178;2024-02-28T08:26:20;51.70;;;20.70;;
85081;SDS011;75424;50.762;7.178;2024-02-28T08:28:45;47.25;;;22.80;;
85081;SDS011;75424;50.762;7.178;2024-02-28T08:31:10;46.45;;;20.38;;
85081;SDS011;75424;50.762;7.178;2024-02-28T08:33:36;46.17;;;21.10;;
85081;SDS011;75424;50.762;7.178;2024-02-28T08:36:01;42.53;;;20.63;;
85081;SDS011;75424;50.762;7.178;2024-02-28T08:38:26;46.13;;;20.60;;
85081;SDS011;75424;50.762;7.178;2024-02-28T08:40:52;44.83;;;20.88;;
85081;SDS011;75424;50.762;7.178;2024-02-28T08:43:17;37.77;;;20.03;;
85081;SDS011;75424;50.762;7.178;2024-02-28T08:45:42;47.07;;;21.07;;
85081;SDS011;75424;50.762;7.178;2024-02-28T08:48:08;42.95;;;20.27;;
85081;SDS011;75424;50.762;7.178;2024-02-28T08:50:33;44.55;;;21.23;;
85081;SDS011;75424;50.762;7.178;2024-02-28T08:52:58;46.88;;;21.67;;
85081;SDS011;75424;50.762;7.178;2024-02-28T08:55:24;42.60;;;19.17;;
85081;SDS011;75424;50.762;7.178;2024-02-28T08:57:49;35.70;;;18.50;;
85081;SDS011;75424;50.762;7.178;2024-02-28T09:00:14;37.83;;;17.92;;
85081;SDS011;75424;50.762;7.178;2024-02-28T09:02:40;43.55;;;19.45;;
85081;SDS011;75424;50.762;7.178;2024-02-28T09:05:06;40.50;;;19.02;;
85081;SDS011;75424;50.762;7.178;2024-02-28T09:07:31;38.20;;;17.85;;
85081;SDS011;75424;50.762;7.178;2024-02-28T09:09:57;38.28;;;19.83;;
85081;SDS011;75424;50.762;7.178;2024-02-28T09:12:23;43.00;;;19.02;;
85081;SDS011;75424;50.762;7.178;2024-02-28T09:14:49;35.35;;;17.80;;
85081;SDS011;75424;50.762;7.178;2024-02-28T09:17:22;37.47;;;18.35;;
85081;SDS011;75424;50.762;7.178;2024-02-28T09:19:47;40.10;;;19.88;;
85081;SDS011;75424;50.762;7.178;2024-02-28T09:22:13;44.47;;;19.87;;
85081;SDS011;75424;50.762;7.178;2024-02-28T09:24:40;42.92;;;19.63;;
85081;SDS011;75424;50.762;7.178;2024-02-28T09:27:05;35.55;;;19.23;;
85081;SDS011;75424;50.762;7.178;2024-02-28T09:29:31;38.80;;;18.33;;
85081;SDS011;75424;50.762;7.178;2024-02-28T09:31:56;39.10;;;19.25;;
85081;SDS011;75424;50.762;7.178;2024-02-28T09:34:22;35.00;;;17.80;;
85081;SDS011;75424;50.762;7.178;2024-02-28T09:36:47;39.15;;;19.42;;
85081;SDS011;75424;50.762;7.178;2024-02-28T09:39:13;38.30;;;18.02;;
85081;SDS011;75424;50.762;7.178;2024-02-28T09:41:40;35.22;;;19.25;;
85081;SDS011;75424;50.762;7.178;2024-02-28T09:44:06;42.85;;;20.70;;
85081;SDS011;75424;50.762;7.178;2024-02-28T09:46:32;40.63;;;21.00;;
85081;SDS011;75424;50.762;7.178;2024-02-28T09:49:04;41.55;;;19.27;;
85081;SDS011;75424;50.762;7.178;2024-02-28T09:51:34;45.03;;;22.17;;
85081;SDS011;75424;50.762;7.178;2024-02-28T09:54:03;42.03;;;20.27;;
85081;SDS011;75424;50.762;7.178;2024-02-28T09:56:29;40.05;;;19.30;;
85081;SDS011;75424;50.762;7.178;2024-02-28T09:58:55;37.92;;;19.65;;
85081;SDS011;75424;50.762;7.178;2024-02-28T10:01:24;39.28;;;19.00;;
85081;SDS011;75424;50.762;7.178;2024-02-28T10:03:51;39.17;;;18.15;;
85081;SDS011;75424;50.762;7.178;2024-02-28T10:06:21;39.15;;;19.88;;
85081;SDS011;75424;50.762;7.178;2024-02-28T10:08:47;39.90;;;19.83;;
85081;SDS011;75424;50.762;7.178;2024-02-28T10:11:19;37.78;;;18.85;;
85081;SDS011;75424;50.762;7.178;2024-02-28T10:13:46;46.30;;;20.90;;
85081;SDS011;75424;50.762;7.178;2024-02-28T10:16:14;41.47;;;19.17;;
85081;SDS011;75424;50.762;7.178;2024-02-28T10:18:43;46.53;;;20.10;;
85081;SDS011;75424;50.762;7.178;2024-02-28T10:21:09;41.45;;;19.20;;
85081;SDS011;75424;50.762;7.178;2024-02-28T10:23:37;37.92;;;19.33;;
85081;SDS011;75424;50.762;7.178;2024-02-28T10:26:03;38.72;;;19.02;;
85081;SDS011;75424;50.762;7.178;2024-02-28T10:28:28;39.20;;;19.80;;
85081;SDS011;75424;50.762;7.178;2024-02-28T10:30:54;39.38;;;19.23;;
85081;SDS011;75424;50.762;7.178;2024-02-28T10:33:19;37.35;;;17.00;;
85081;SDS011;75424;50.762;7.178;2024-02-28T10:35:45;39.35;;;19.40;;
85081;SDS011;75424;50.762;7.178;2024-02-28T10:38:10;39.33;;;17.75;;
85081;SDS011;75424;50.762;7.178;2024-02-28T10:40:37;33.00;;;17.42;;
85081;SDS011;75424;50.762;7.178;2024-02-28T10:43:04;39.95;;;18.45;;
85081;SDS011;75424;50.762;7.178;2024-02-28T10:45:32;44.63;;;20.40;;
85081;SDS011;75424;50.762;7.178;2024-02-28T10:48:00;43.42;;;18.63;;
85081;SDS011;75424;50.762;7.178;2024-02-28T10:50:27;41.67;;;18.98;;
85081;SDS011;75424;50.762;7.178;2024-02-28T10:52:52;50.35;;;21.27;;
85081;SDS011;75424;50.762;7.178;2024-02-28T10:55:20;35.33;;;18.83;;
85081;SDS011;75424;50.762;7.178;2024-02-28T10:57:54;37.53;;;19.00;;
85081;SDS011;75424;50.762;7.178;2024-02-28T11:00:26;41.88;;;20.13;;
85081;SDS011;75424;50.762;7.178;2024-02-28T11:02:53;39.78;;;18.58;;
85081;SDS011;75424;50.762;7.178;2024-02-28T11:05:19;42.50;;;20.30;;
85081;SDS011;75424;50.762;7.178;2024-02-28T11:07:44;41.50;;;19.80;;
85081;SDS011;75424;50.762;7.178;2024-02-28T11:10:10;41.47;;;20.73;;
85081;SDS011;75424;50.762;7.178;2024-02-28T11:12:37;39.97;;;20.25;;
85081;SDS011;75424;50.762;7.178;2024-02-28T11:15:03;35.35;;;17.90;;
85081;SDS011;75424;50.762;7.178;2024-02-28T11:17:31;38.50;;;18.23;;
85081;SDS011;75424;50.762;7.178;2024-02-28T11:19:57;38.17;;;18.38;;
85081;SDS011;75424;50.762;7.178;2024-02-28T11:22:23;35.95;;;18.45;;
85081;SDS011;75424;50.762;7.178;2024-02-28T11:24:49;36.17;;;19.10;;
85081;SDS011;75424;50.762;7.178;2024-02-28T11:27:18;38.15;;;18.65;;
85081;SDS011;75424;50.762;7.178;2024-02-28T11:29:43;35.58;;;18.48;;
85081;SDS011;75424;50.762;7.178;2024-02-28T11:32:11;35.97;;;18.08;;
85081;SDS011;75424;50.762;7.178;2024-02-28T11:34:38;36.78;;;16.75;;
85081;SDS011;75424;50.762;7.178;2024-02-28T11:37:08;34.20;;;16.95;;
85081;SDS011;75424;50.762;7.178;2024-02-28T11:39:34;37.60;;;18.85;;
85081;SDS011;75424;50.762;7.178;2024-02-28T11:42:09;31.13;;;16.23;;
85081;SDS011;75424;50.762;7.178;2024-02-28T11:44:35;38.17;;;18.67;;
85081;SDS011;75424;50.762;7.178;2024-02-28T11:47:00;42.13;;;19.63;;
85081;SDS011;75424;50.762;7.178;2024-02-28T11:49:27;40.85;;;21.10;;
85081;SDS011;75424;50.762;7.178;2024-02-28T11:51:52;37.67;;;17.93;;
85081;SDS011;75424;50.762;7.178;2024-02-28T11:54:18;34.88;;;17.23;;
85081;SDS011;75424;50.762;7.178;2024-02-28T11:56:43;40.15;;;18.20;;
85081;SDS011;75424;50.762;7.178;2024-02-28T11:59:09;37.63;;;17.90;;
85081;SDS011;75424;50.762;7.178;2024-02-28T12:01:37;37.50;;;18.52;;
85081;SDS011;75424;50.762;7.178;2024-02-28T12:04:04;40.42;;;18.17;;
85081;SDS011;75424;50.762;7.178;2024-02-28T12:06:30;36.63;;;18.85;;
85081;SDS011;75424;50.762;7.178;2024-02-28T12:08:56;35.88;;;17.80;;
85081;SDS011;75424;50.762;7.178;2024-02-28T12:11:23;33.95;;;16.95;;
85081;SDS011;75424;50.762;7.178;2024-02-28T12:13:52;37.47;;;18.67;;
85081;SDS011;75424;50.762;7.178;2024-02-28T12:16:21;32.63;;;17.08;;
85081;SDS011;75424;50.762;7.178;2024-02-28T12:18:47;32.65;;;17.30;;
85081;SDS011;75424;50.762;7.178;2024-02-28T12:21:13;36.63;;;17.35;;
85081;SDS011;75424;50.762;7.178;2024-02-28T12:23:38;37.72;;;17.45;;
85081;SDS011;75424;50.762;7.178;2024-02-28T12:26:03;38.42;;;18.20;;
85081;SDS011;75424;50.762;7.178;2024-02-28T12:28:29;36.33;;;19.23;;
85081;SDS011;75424;50.762;7.178;2024-02-28T12:30:55;37.42;;;17.63;;
85081;SDS011;75424;50.762;7.178;2024-02-28T12:33:21;40.67;;;19.67;;
85081;SDS011;75424;50.762;7.178;2024-02-28T12:35:47;38.28;;;19.13;;
85081;SDS011;75424;50.762;7.178;2024-02-28T12:38:13;37.78;;;19.50;;
85081;SDS011;75424;50.762;7.178;2024-02-28T12:40:39;42.33;;;19.55;;
85081;SDS011;75424;50.762;7.178;2024-02-28T12:43:05;41.80;;;19.25;;
85081;SDS011;75424;50.762;7.178;2024-02-28T12:45:30;40.08;;;18.75;;
85081;SDS011;75424;50.762;7.178;2024-02-28T12:47:56;39.90;;;19.60;;
85081;SDS011;75424;50.762;7.178;2024-02-28T12:50:22;40.75;;;19.30;;
85081;SDS011;75424;50.762;7.178;2024-02-28T12:52:48;40.75;;;19.55;;
85081;SDS011;75424;50.762;7.178;2024-02-28T12:55:18;37.08;;;19.80;;
85081;SDS011;75424;50.762;7.178;2024-02-28T12:57:43;39.67;;;18.75;;
85081;SDS011;75424;50.762;7.178;2024-02-28T13:00:10;32.38;;;17.30;;
85081;SDS011;75424;50.762;7.178;2024-02-28T13:02:36;35.13;;;18.08;;
85081;SDS011;75424;50.762;7.178;2024-02-28T13:05:01;39.47;;;18.85;;
85081;SDS011;75424;50.762;7.178;2024-02-28T13:07:26;41.10;;;18.40;;
85081;SDS011;75424;50.762;7.178;2024-02-28T13:09:52;36.70;;;17.63;;
85081;SDS011;75424;50.762;7.178;2024-02-28T13:12:18;36.08;;;18.13;;
85081;SDS011;75424;50.762;7.178;2024-02-28T13:14:44;36.40;;;17.38;;
85081;SDS011;75424;50.762;7.178;2024-02-28T13:17:10;36.15;;;17.95;;
85081;SDS011;75424;50.762;7.178;2024-02-28T13:19:36;38.28;;;18.33;;
85081;SDS011;75424;50.762;7.178;2024-02-28T13:22:01;38.72;;;17.48;;
85081;SDS011;75424;50.762;7.178;2024-02-28T13:24:26;32.85;;;16.85;;
85081;SDS011;75424;50.762;7.178;2024-02-28T13:26:52;31.88;;;16.92;;
85081;SDS011;75424;50.762;7.178;2024-02-28T13:29:17;33.80;;;16.43;;
85081;SDS011;75424;50.762;7.178;2024-02-28T13:31:42;37.35;;;17.65;;
85081;SDS011;75424;50.762;7.178;2024-02-28T13:34:08;37.72;;;17.30;;
85081;SDS011;75424;50.762;7.178;2024-02-28T13:36:33;32.90;;;15.05;;
85081;SDS011;75424;50.762;7.178;2024-02-28T13:39:01;37.60;;;16.48;;
85081;SDS011;75424;50.762;7.178;2024-02-28T13:41:28;34.13;;;16.67;;
85081;SDS011;75424;50.762;7.178;2024-02-28T13:43:53;29.50;;;15.95;;
85081;SDS011;75424;50.762;7.178;2024-02-28T13:46:19;32.28;;;15.88;;
85081;SDS011;75424;50.762;7.178;2024-02-28T13:48:44;32.45;;;14.35;;
85081;SDS011;75424;50.762;7.178;2024-02-28T13:51:10;30.90;;;16.15;;
85081;SDS011;75424;50.762;7.178;2024-02-28T13:53:36;35.03;;;16.30;;
85081;SDS011;75424;50.762;7.178;2024-02-28T13:56:01;31.07;;;16.17;;
85081;SDS011;75424;50.762;7.178;2024-02-28T13:58:26;34.17;;;17.98;;
85081;SDS011;75424;50.762;7.178;2024-02-28T14:00:52;30.30;;;15.57;;
85081;SDS011;75424;50.762;7.178;2024-02-28T14:03:17;36.45;;;16.73;;
85081;SDS011;75424;50.762;7.178;2024-02-28T14:05:42;31.92;;;14.85;;
85081;SDS011;75424;50.762;7.178;2024-02-28T14:08:08;26.65;;;14.27;;
85081;SDS011;75424;50.762;7.178;2024-02-28T14:10:34;31.63;;;14.65;;
85081;SDS011;75424;50.762;7.178;2024-02-28T14:13:00;28.50;;;14.30;;